createdAt,value
2022-10-31T00:00:53.434Z,8.50
2022-10-31T00:03:19.984Z,6.75
2022-10-31T00:05:49.357Z,7.07
2022-10-31T00:08:16.695Z,7.45
2022-10-31T00:10:44.836Z,6.75
2022-10-31T00:13:13.170Z,7.65
2022-10-31T00:15:41.036Z,6.70
2022-10-31T00:18:09.524Z,7.15
2022-10-31T00:20:36.202Z,7.88
2022-10-31T00:23:03.117Z,7.07
2022-10-31T00:25:33.613Z,7.22
2022-10-31T00:28:00.523Z,7.13
2022-10-31T00:30:27.472Z,7.65
2022-10-31T00:32:53.889Z,7.90
2022-10-31T00:35:20.211Z,7.80
2022-10-31T00:37:46.738Z,7.05
2022-10-31T00:40:13.079Z,7.20
2022-10-31T00:42:42.587Z,7.70
2022-10-31T00:45:10.500Z,7.50
2022-10-31T00:47:37.156Z,7.78
2022-10-31T00:50:05.402Z,7.90
2022-10-31T00:52:31.742Z,8.63
2022-10-31T00:54:58.139Z,8.05
2022-10-31T00:57:24.561Z,7.43
2022-10-31T00:59:51.026Z,7.57
2022-10-31T01:02:18.046Z,7.20
2022-10-31T01:04:44.715Z,7.13
2022-10-31T01:07:11.236Z,7.80
2022-10-31T01:09:37.678Z,8.45
2022-10-31T01:12:04.565Z,8.18
2022-10-31T01:14:30.952Z,7.18
2022-10-31T01:16:57.559Z,7.78
2022-10-31T01:19:24.187Z,7.38
2022-10-31T01:21:50.864Z,9.15
2022-10-31T01:24:17.482Z,7.72
2022-10-31T01:26:43.834Z,7.25
2022-10-31T01:29:10.191Z,7.05
2022-10-31T01:31:39.908Z,8.20
2022-10-31T01:34:07.104Z,7.18
2022-10-31T01:36:39.112Z,7.15
2022-10-31T01:39:13.294Z,7.72
2022-10-31T01:41:44.980Z,7.45
2022-10-31T01:44:14.452Z,6.85
2022-10-31T01:46:44.649Z,7.95
2022-10-31T01:49:21.859Z,7.63
2022-10-31T01:51:59.513Z,6.85
2022-10-31T01:54:33.417Z,6.75
2022-10-31T01:57:02.490Z,7.60
2022-10-31T01:59:32.875Z,6.43
2022-10-31T02:01:59.741Z,7.93
2022-10-31T02:04:27.127Z,8.50
2022-10-31T02:07:05.306Z,7.80
2022-10-31T02:09:33.922Z,7.00
2022-10-31T02:12:01.126Z,7.68
2022-10-31T02:14:30.358Z,6.70
2022-10-31T02:16:57.356Z,7.03
2022-10-31T02:19:49.439Z,7.30
2022-10-31T02:22:34.723Z,6.68
2022-10-31T02:25:14.635Z,7.40
2022-10-31T02:28:03.885Z,6.78
2022-10-31T02:30:46.422Z,5.88
2022-10-31T02:33:27.899Z,6.32
2022-10-31T02:36:06.450Z,6.45
2022-10-31T02:38:57.944Z,7.18
2022-10-31T02:41:38.670Z,6.28
2022-10-31T02:44:17.050Z,7.18
2022-10-31T02:46:50.360Z,6.35
2022-10-31T02:49:28.066Z,7.15
2022-10-31T02:51:54.579Z,6.45
2022-10-31T02:54:27.386Z,6.15
2022-10-31T02:57:00.322Z,6.05
2022-10-31T02:59:27.810Z,7.07
2022-10-31T03:01:57.263Z,6.90
2022-10-31T03:04:35.948Z,8.10
2022-10-31T03:07:20.928Z,7.93
2022-10-31T03:10:04.033Z,7.65
2022-10-31T03:12:51.313Z,7.85
2022-10-31T03:15:26.833Z,7.28
2022-10-31T03:18:06.962Z,7.50
2022-10-31T03:21:12.057Z,7.70
2022-10-31T03:23:40.219Z,8.48
2022-10-31T03:26:10.592Z,7.13
2022-10-31T03:28:47.362Z,7.70
2022-10-31T03:31:18.454Z,8.25
2022-10-31T03:33:47.107Z,11.85
2022-10-31T03:36:16.692Z,11.25
2022-10-31T03:38:45.214Z,10.73
2022-10-31T03:41:17.688Z,10.65
2022-10-31T03:43:49.368Z,10.73
2022-10-31T03:46:15.921Z,8.68
2022-10-31T03:48:42.273Z,7.97
2022-10-31T03:51:26.988Z,7.78
2022-10-31T03:53:58.465Z,6.93
2022-10-31T03:56:36.241Z,6.82
2022-10-31T03:59:10.342Z,6.93
2022-10-31T04:01:42.189Z,6.97
2022-10-31T04:04:09.470Z,7.57
2022-10-31T04:06:39.936Z,6.55
2022-10-31T04:09:10.058Z,6.70
2022-10-31T04:11:42.197Z,7.13
2022-10-31T04:14:09.834Z,6.65
2022-10-31T04:16:36.499Z,7.43
2022-10-31T04:19:02.946Z,7.25
2022-10-31T04:21:30.747Z,9.73
2022-10-31T04:23:58.069Z,8.38
2022-10-31T04:26:24.422Z,7.45
2022-10-31T04:28:50.742Z,7.60
2022-10-31T04:31:17.277Z,7.72
2022-10-31T04:33:43.810Z,7.80
2022-10-31T04:36:10.250Z,6.85
2022-10-31T04:38:36.895Z,7.47
2022-10-31T04:41:03.427Z,6.50
2022-10-31T04:43:29.744Z,6.55
2022-10-31T04:45:56.192Z,6.22
2022-10-31T04:48:22.839Z,5.63
2022-10-31T04:50:49.309Z,6.70
2022-10-31T04:53:15.754Z,7.68
2022-10-31T04:55:42.177Z,7.28
2022-10-31T04:58:08.847Z,9.68
2022-10-31T05:00:35.394Z,10.13
2022-10-31T05:03:02.293Z,9.30
2022-10-31T05:05:32.020Z,8.98
2022-10-31T05:07:58.574Z,7.40
2022-10-31T05:10:28.334Z,6.78
2022-10-31T05:12:57.677Z,6.97
2022-10-31T05:15:26.097Z,6.75
2022-10-31T05:17:53.507Z,7.50
2022-10-31T05:20:22.219Z,8.73
2022-10-31T05:22:54.500Z,8.93
2022-10-31T05:25:23.257Z,8.68
2022-10-31T05:27:51.469Z,9.07
2022-10-31T05:30:21.247Z,8.27
2022-10-31T05:32:49.843Z,10.02
2022-10-31T05:35:20.777Z,8.32
2022-10-31T05:40:15.137Z,8.80
2022-10-31T05:42:43.022Z,8.73
2022-10-31T05:45:11.739Z,7.85
2022-10-31T05:47:39.304Z,8.25
2022-10-31T05:50:07.142Z,8.30
2022-10-31T05:52:34.094Z,8.52
2022-10-31T05:55:00.748Z,7.72
2022-10-31T05:57:27.123Z,8.13
2022-10-31T05:59:55.125Z,8.13
2022-10-31T06:02:22.529Z,10.23
2022-10-31T06:04:49.139Z,7.13
2022-10-31T06:07:15.617Z,8.10
2022-10-31T06:09:42.079Z,8.27
2022-10-31T06:12:08.549Z,8.63
2022-10-31T06:14:34.917Z,8.10
2022-10-31T06:17:01.553Z,9.23
2022-10-31T06:19:27.937Z,9.35
2022-10-31T06:21:54.300Z,8.35
2022-10-31T06:24:20.774Z,9.70
2022-10-31T06:26:47.392Z,9.07
2022-10-31T06:29:13.887Z,7.82
2022-10-31T06:31:40.579Z,9.77
2022-10-31T06:34:07.026Z,9.30
2022-10-31T06:36:33.568Z,9.68
2022-10-31T06:39:01.503Z,8.90
2022-10-31T06:41:27.990Z,8.70
2022-10-31T06:43:54.504Z,7.90
2022-10-31T06:46:21.150Z,7.57
2022-10-31T06:48:47.547Z,8.43
2022-10-31T06:51:14.211Z,7.72
2022-10-31T06:53:40.618Z,8.02
2022-10-31T06:56:07.202Z,8.10
2022-10-31T06:58:34.654Z,7.10
2022-10-31T07:01:02.158Z,7.85
2022-10-31T07:03:28.723Z,8.05
2022-10-31T07:05:58.215Z,7.97
2022-10-31T07:08:25.454Z,7.95
2022-10-31T07:10:54.204Z,7.75
2022-10-31T07:13:20.826Z,7.57
2022-10-31T07:15:47.138Z,7.45
2022-10-31T07:18:13.940Z,9.32
2022-10-31T07:20:40.379Z,7.35
2022-10-31T07:23:07.054Z,7.53
2022-10-31T07:25:33.652Z,7.35
2022-10-31T07:28:00.703Z,7.65
2022-10-31T07:30:27.463Z,6.57
2022-10-31T07:32:53.973Z,7.68
2022-10-31T07:35:25.948Z,6.40
2022-10-31T07:37:53.188Z,6.60
2022-10-31T07:40:20.535Z,5.95
2022-10-31T07:42:49.349Z,6.43
2022-10-31T07:45:18.698Z,6.35
2022-10-31T07:47:49.004Z,6.65
2022-10-31T07:50:18.498Z,6.75
2022-10-31T07:52:45.460Z,6.97
2022-10-31T07:55:12.438Z,6.32
2022-10-31T07:57:39.075Z,6.32
2022-10-31T08:00:07.055Z,6.38
2022-10-31T08:02:33.395Z,6.60
2022-10-31T08:05:01.307Z,6.72
2022-10-31T08:07:29.324Z,6.28
2022-10-31T08:09:56.645Z,6.63
2022-10-31T08:12:23.127Z,6.15
2022-10-31T08:14:49.516Z,6.78
2022-10-31T08:17:15.852Z,6.22
2022-10-31T08:19:42.489Z,6.00
2022-10-31T08:22:09.040Z,5.88
2022-10-31T08:24:35.443Z,6.28
2022-10-31T08:27:01.909Z,6.80
2022-10-31T08:29:28.377Z,6.57
2022-10-31T08:31:54.908Z,6.60
2022-10-31T08:34:21.349Z,5.60
2022-10-31T08:36:47.771Z,6.30
2022-10-31T08:39:14.170Z,5.90
2022-10-31T08:41:40.583Z,6.18
2022-10-31T08:44:07.014Z,6.15
2022-10-31T08:46:33.771Z,5.85
2022-10-31T08:49:01.176Z,6.20
2022-10-31T08:51:27.828Z,5.60
2022-10-31T08:53:54.229Z,6.90
2022-10-31T08:56:20.627Z,6.13
2022-10-31T08:58:46.967Z,6.07
2022-10-31T09:01:13.483Z,6.03
2022-10-31T09:03:40.184Z,6.88
2022-10-31T09:06:07.022Z,7.63
2022-10-31T09:08:34.061Z,6.85
2022-10-31T09:11:00.701Z,6.68
2022-10-31T09:13:28.296Z,7.18
2022-10-31T09:15:55.133Z,6.15
2022-10-31T09:18:23.157Z,6.90
2022-10-31T09:20:50.876Z,7.00
2022-10-31T09:23:22.690Z,6.40
2022-10-31T09:25:51.151Z,6.70
2022-10-31T09:28:22.143Z,5.75
2022-10-31T09:30:52.040Z,6.05
2022-10-31T09:33:19.283Z,6.70
2022-10-31T09:35:45.890Z,5.80
2022-10-31T09:38:18.192Z,5.93
2022-10-31T09:40:47.640Z,5.75
2022-10-31T09:43:51.485Z,6.05
2022-10-31T09:46:45.689Z,5.65
2022-10-31T09:49:19.861Z,6.25
2022-10-31T09:51:53.125Z,5.43
2022-10-31T09:54:25.690Z,5.68
2022-10-31T09:56:52.813Z,6.30
2022-10-31T09:59:35.116Z,5.25
2022-10-31T10:02:06.795Z,5.38
2022-10-31T10:04:44.060Z,5.70
2022-10-31T10:07:31.744Z,5.55
2022-10-31T10:10:00.343Z,6.20
2022-10-31T10:13:03.442Z,6.35
2022-10-31T10:16:01.406Z,5.80
2022-10-31T10:18:42.132Z,6.03
2022-10-31T10:23:52.580Z,6.60
2022-10-31T10:26:21.570Z,5.53
2022-10-31T10:28:58.754Z,6.25
2022-10-31T10:31:32.298Z,5.82
2022-10-31T10:34:18.059Z,5.85
2022-10-31T10:36:58.879Z,5.22
2022-10-31T10:39:31.124Z,5.85
2022-10-31T10:42:00.555Z,6.07
2022-10-31T10:44:26.955Z,5.80
2022-10-31T10:47:00.250Z,5.25
2022-10-31T10:49:41.443Z,5.25
2022-10-31T10:52:40.921Z,5.55
2022-10-31T10:55:35.115Z,5.82
2022-10-31T10:58:04.472Z,6.35
2022-10-31T11:00:35.504Z,5.37
2022-10-31T11:03:02.708Z,5.25
2022-10-31T11:05:38.731Z,5.30
2022-10-31T11:08:06.043Z,5.78
2022-10-31T11:10:32.997Z,6.20
2022-10-31T11:13:20.523Z,5.55
2022-10-31T11:16:05.527Z,5.90
2022-10-31T11:18:35.485Z,5.60
2022-10-31T11:21:03.995Z,5.65
2022-10-31T11:23:31.199Z,6.53
2022-10-31T11:25:59.018Z,5.55
2022-10-31T11:28:27.237Z,5.80
2022-10-31T11:30:59.245Z,5.03
2022-10-31T11:33:31.680Z,5.30
2022-10-31T11:35:59.266Z,5.38
2022-10-31T11:38:51.084Z,5.22
2022-10-31T11:41:20.869Z,5.53
2022-10-31T11:43:51.862Z,5.07
2022-10-31T11:46:31.084Z,5.72
2022-10-31T11:48:57.617Z,5.88
2022-10-31T11:51:31.505Z,6.07
2022-10-31T11:54:03.957Z,5.68
2022-10-31T11:56:41.491Z,5.28
2022-10-31T11:59:19.586Z,5.80
2022-10-31T12:01:51.659Z,4.30
2022-10-31T12:04:18.389Z,4.82
2022-10-31T12:06:46.499Z,4.80
2022-10-31T12:09:28.829Z,5.03
2022-10-31T12:12:11.360Z,5.72
2022-10-31T12:15:19.492Z,5.55
2022-10-31T12:18:05.338Z,5.13
2022-10-31T12:20:45.642Z,4.10
2022-10-31T12:23:39.555Z,3.83
2022-10-31T12:26:44.606Z,3.05
2022-10-31T12:29:26.938Z,4.50
2022-10-31T12:31:56.873Z,4.28
2022-10-31T12:34:47.725Z,4.32
2022-10-31T12:37:30.617Z,4.85
2022-10-31T12:40:05.845Z,3.85
2022-10-31T12:43:04.808Z,4.85
2022-10-31T12:45:50.488Z,4.88
2022-10-31T12:48:38.219Z,4.85
2022-10-31T12:51:23.170Z,4.38
2022-10-31T12:54:07.861Z,4.63
2022-10-31T12:56:34.223Z,4.45
2022-10-31T12:59:22.414Z,5.45
2022-10-31T13:01:54.215Z,4.72
2022-10-31T13:04:41.438Z,4.47
2022-10-31T13:07:15.108Z,5.00
2022-10-31T13:10:00.624Z,5.43
2022-10-31T13:12:32.098Z,5.10
2022-10-31T13:15:06.872Z,5.18
2022-10-31T13:17:43.189Z,4.57
2022-10-31T13:20:09.846Z,5.90
2022-10-31T13:22:37.920Z,4.93
2022-10-31T13:25:10.771Z,5.50
2022-10-31T13:27:50.080Z,5.88
2022-10-31T13:30:19.925Z,5.20
2022-10-31T13:32:51.827Z,5.55
2022-10-31T13:35:28.633Z,5.07
2022-10-31T13:38:22.933Z,4.63
2022-10-31T13:40:57.848Z,4.03
2022-10-31T13:43:43.122Z,5.80
2022-10-31T13:46:35.130Z,5.78
2022-10-31T13:49:01.793Z,5.07
2022-10-31T13:51:33.675Z,4.30
2022-10-31T13:54:22.764Z,5.20
2022-10-31T13:56:53.905Z,5.28
2022-10-31T13:59:23.504Z,6.05
2022-10-31T14:01:54.255Z,6.60
2022-10-31T14:04:32.501Z,6.65
2022-10-31T14:07:11.956Z,8.00
2022-10-31T14:09:50.863Z,7.45
2022-10-31T14:12:28.255Z,7.53
2022-10-31T14:15:14.636Z,10.05
2022-10-31T14:17:49.734Z,8.75
2022-10-31T14:20:16.389Z,8.63
2022-10-31T14:22:43.609Z,7.03
2022-10-31T14:25:32.791Z,6.65
2022-10-31T14:28:01.436Z,7.30
2022-10-31T14:30:30.058Z,7.53
2022-10-31T14:33:01.120Z,6.72
2022-10-31T14:35:53.208Z,5.53
2022-10-31T14:38:47.812Z,5.70
2022-10-31T14:41:33.408Z,5.60
2022-10-31T14:44:18.343Z,6.50
2022-10-31T14:47:06.995Z,6.00
2022-10-31T14:50:03.385Z,6.55
2022-10-31T14:52:29.895Z,7.05
2022-10-31T14:55:00.633Z,7.90
2022-10-31T14:57:31.944Z,6.18
2022-10-31T15:00:06.266Z,8.35
2022-10-31T15:02:40.525Z,5.93
2022-10-31T15:05:11.008Z,5.35
2022-10-31T15:07:49.009Z,6.57
2022-10-31T15:10:30.708Z,6.20
2022-10-31T15:12:57.707Z,5.78
2022-10-31T15:15:27.029Z,8.35
2022-10-31T15:17:59.626Z,7.82
2022-10-31T15:20:29.472Z,8.40
2022-10-31T15:22:58.274Z,7.75
2022-10-31T15:25:26.842Z,8.30
2022-10-31T15:27:54.096Z,7.85
2022-10-31T15:30:23.807Z,6.95
2022-10-31T15:32:58.217Z,7.40
2022-10-31T15:35:31.044Z,8.18
2022-10-31T15:37:59.734Z,6.70
2022-10-31T15:40:27.898Z,7.60
2022-10-31T15:43:01.450Z,7.70
2022-10-31T15:45:29.668Z,7.85
2022-10-31T15:48:05.295Z,7.85
2022-10-31T15:50:31.995Z,8.05
2022-10-31T15:52:59.217Z,6.13
2022-10-31T15:55:28.173Z,6.20
2022-10-31T15:58:04.481Z,7.05
2022-10-31T16:00:36.179Z,6.45
2022-10-31T16:03:15.038Z,7.47
2022-10-31T16:05:49.812Z,5.68
2022-10-31T16:08:33.704Z,6.63
2022-10-31T16:11:15.465Z,5.65
2022-10-31T16:14:01.384Z,6.40
2022-10-31T16:16:35.231Z,6.88
2022-10-31T16:19:05.269Z,7.15
2022-10-31T16:21:37.367Z,6.25
2022-10-31T16:24:31.857Z,7.10
2022-10-31T16:27:06.664Z,7.00
2022-10-31T16:29:44.226Z,8.63
2022-10-31T16:32:49.199Z,7.70
2022-10-31T16:35:22.690Z,8.35
2022-10-31T16:37:49.231Z,8.95
2022-10-31T16:40:17.733Z,8.90
2022-10-31T16:42:45.596Z,7.60
2022-10-31T16:45:18.884Z,9.60
2022-10-31T16:47:45.632Z,12.82
2022-10-31T16:50:24.253Z,13.15
2022-10-31T16:53:12.494Z,10.05
2022-10-31T16:55:44.827Z,11.20
2022-10-31T16:58:17.004Z,12.68
2022-10-31T17:00:43.522Z,11.10
2022-10-31T17:03:10.632Z,10.40
2022-10-31T17:05:37.116Z,12.10
2022-10-31T17:08:03.826Z,11.68
2022-10-31T17:10:30.724Z,12.63
2022-10-31T17:12:57.628Z,11.77
2022-10-31T17:15:26.427Z,12.43
2022-10-31T17:17:53.108Z,12.10
2022-10-31T17:20:23.878Z,10.90
2022-10-31T17:25:20.903Z,11.93
2022-10-31T17:27:47.488Z,12.57
2022-10-31T17:30:15.488Z,12.57
2022-10-31T17:32:42.566Z,13.15
2022-10-31T17:35:10.543Z,12.38
2022-10-31T17:37:37.149Z,10.68
2022-10-31T17:40:04.101Z,11.80
2022-10-31T17:42:30.578Z,11.77
2022-10-31T17:44:56.895Z,12.70
2022-10-31T17:47:23.309Z,13.02
2022-10-31T17:49:49.629Z,12.93
2022-10-31T17:52:16.069Z,11.43
2022-10-31T17:54:42.391Z,10.25
2022-10-31T17:57:08.852Z,10.88
2022-10-31T17:59:35.286Z,11.85
2022-10-31T18:02:03.739Z,11.25
2022-10-31T18:04:30.144Z,10.63
2022-10-31T18:06:56.578Z,12.52
2022-10-31T18:09:23.275Z,12.38
2022-10-31T18:11:49.692Z,10.27
2022-10-31T18:14:16.108Z,11.60
2022-10-31T18:16:42.502Z,9.80
2022-10-31T18:19:13.189Z,12.43
2022-10-31T18:21:39.792Z,11.80
2022-10-31T18:24:06.968Z,12.50
2022-10-31T18:26:33.527Z,12.30
2022-10-31T18:29:00.514Z,15.10
2022-10-31T18:31:27.074Z,13.40
2022-10-31T18:33:56.651Z,13.38
2022-10-31T18:36:24.424Z,12.13
2022-10-31T18:38:51.417Z,16.42
2022-10-31T18:41:18.082Z,11.32
2022-10-31T18:43:44.537Z,11.88
2022-10-31T18:46:16.268Z,12.30
2022-10-31T18:48:44.085Z,11.75
2022-10-31T18:51:13.600Z,12.65
2022-10-31T18:53:40.602Z,12.02
2022-10-31T18:56:08.901Z,12.85
2022-10-31T18:58:35.630Z,14.93
2022-10-31T19:01:07.598Z,15.15
2022-10-31T19:03:34.597Z,15.75
2022-10-31T19:06:01.569Z,13.43
2022-10-31T19:11:09.796Z,11.63
2022-10-31T19:13:37.298Z,12.50
2022-10-31T19:16:05.762Z,14.63
2022-10-31T19:18:32.357Z,12.63
2022-10-31T19:20:58.750Z,12.60
2022-10-31T19:23:25.289Z,12.38
2022-10-31T19:25:54.339Z,14.18
2022-10-31T19:28:20.692Z,12.85
2022-10-31T19:30:54.545Z,13.60
2022-10-31T19:33:21.386Z,13.63
2022-10-31T19:35:47.834Z,14.68
2022-10-31T19:38:14.651Z,15.15
2022-10-31T19:40:41.094Z,14.93
2022-10-31T19:43:07.437Z,12.63
2022-10-31T19:45:33.940Z,12.68
2022-10-31T19:48:02.279Z,14.25
2022-10-31T19:50:28.959Z,14.75
2022-10-31T19:52:55.422Z,13.00
2022-10-31T19:55:21.760Z,14.00
2022-10-31T19:58:01.377Z,13.52
2022-10-31T20:00:34.799Z,13.48
2022-10-31T20:03:01.577Z,13.88
2022-10-31T20:05:30.690Z,13.95
2022-10-31T20:07:57.189Z,13.80
2022-10-31T20:10:23.986Z,14.18
2022-10-31T20:12:50.700Z,12.68
2022-10-31T20:15:17.261Z,12.40
2022-10-31T20:17:43.953Z,13.20
2022-10-31T20:20:10.676Z,15.10
2022-10-31T20:22:37.525Z,13.77
2022-10-31T20:25:04.767Z,13.38
2022-10-31T20:27:31.358Z,13.75
2022-10-31T20:29:57.909Z,13.68
2022-10-31T20:32:24.382Z,13.52
2022-10-31T20:34:50.865Z,14.15
2022-10-31T20:37:17.377Z,15.00
2022-10-31T20:39:43.901Z,15.80
2022-10-31T20:42:10.310Z,16.95
2022-10-31T20:44:36.931Z,18.85
2022-10-31T20:47:03.538Z,18.15
2022-10-31T20:49:30.748Z,19.63
2022-10-31T20:51:57.166Z,20.50
2022-10-31T20:54:23.707Z,20.17
2022-10-31T20:56:50.057Z,18.55
2022-10-31T20:59:16.554Z,19.45
2022-10-31T21:01:43.325Z,17.73
2022-10-31T21:04:10.074Z,19.75
2022-10-31T21:06:36.451Z,20.50
2022-10-31T21:09:03.083Z,19.58
2022-10-31T21:11:31.068Z,18.98
2022-10-31T21:13:59.039Z,17.27
2022-10-31T21:16:32.845Z,19.38
2022-10-31T21:19:00.701Z,18.98
2022-10-31T21:21:34.671Z,18.25
2022-10-31T21:24:07.473Z,18.60
2022-10-31T21:26:37.599Z,19.55
2022-10-31T21:29:05.341Z,20.27
2022-10-31T21:31:32.550Z,18.42
2022-10-31T21:33:58.974Z,19.30
2022-10-31T21:36:26.234Z,18.88
2022-10-31T21:38:54.443Z,19.50
2022-10-31T21:41:21.797Z,21.35
2022-10-31T21:43:50.335Z,19.08
2022-10-31T21:46:19.754Z,18.45
2022-10-31T21:48:46.962Z,21.25
2022-10-31T21:51:35.112Z,19.50
2022-10-31T21:54:01.942Z,20.08
2022-10-31T21:56:28.876Z,21.27
2022-10-31T21:58:55.388Z,18.98
2022-10-31T22:01:23.088Z,19.17
2022-10-31T22:03:49.600Z,18.40
2022-10-31T22:06:16.454Z,17.15
2022-10-31T22:08:43.281Z,16.70
2022-10-31T22:11:15.036Z,16.55
2022-10-31T22:13:44.883Z,17.55
2022-10-31T22:16:13.696Z,15.93
2022-10-31T22:18:41.018Z,15.07
2022-10-31T22:21:19.774Z,16.50
2022-10-31T22:24:00.609Z,16.63
2022-10-31T22:26:30.138Z,14.85
2022-10-31T22:28:57.580Z,16.77
2022-10-31T22:31:24.754Z,17.25
2022-10-31T22:33:51.860Z,17.55
2022-10-31T22:36:21.098Z,16.05
2022-10-31T22:38:48.228Z,17.67
2022-10-31T22:41:17.361Z,16.85
2022-10-31T22:43:44.188Z,16.52
2022-10-31T22:46:13.455Z,17.35
2022-10-31T22:48:42.703Z,17.85
2022-10-31T22:51:20.016Z,18.27
2022-10-31T22:53:47.045Z,18.45
2022-10-31T22:56:17.873Z,19.05
2022-10-31T23:01:13.523Z,17.73
2022-10-31T23:03:40.654Z,17.30
2022-10-31T23:06:09.749Z,17.20
2022-10-31T23:08:37.403Z,17.85
2022-10-31T23:11:30.046Z,18.13
2022-10-31T23:13:57.115Z,18.30
2022-10-31T23:16:24.373Z,19.65
2022-10-31T23:18:50.840Z,18.52
2022-10-31T23:21:17.504Z,18.20
2022-10-31T23:23:44.135Z,18.63
2022-10-31T23:26:10.582Z,17.95
2022-10-31T23:28:37.020Z,18.27
2022-10-31T23:31:03.564Z,18.23
2022-10-31T23:33:31.587Z,18.55
2022-10-31T23:35:58.063Z,17.30
2022-10-31T23:38:24.539Z,17.80
2022-10-31T23:40:50.943Z,17.05
2022-10-31T23:43:17.440Z,17.55
2022-10-31T23:45:43.961Z,16.90
2022-10-31T23:48:10.811Z,16.88
2022-10-31T23:50:37.954Z,15.45
2022-10-31T23:53:04.407Z,16.63
2022-10-31T23:55:31.137Z,17.40
2022-10-31T23:57:57.548Z,17.77
